Time;durP1;ratioP1;P1;durP2;ratioP2;P2;SDS_P1;SDS_P2;PMS_P1;PMS_P2;Temp;Humidity;BMP_temperature;BMP_pressure;BME280_temperature;BME280_humidity;BME280_pressure;Samples;Min_cycle;Max_cycle;Signal;HPM_P1;HPM_P2
2023/08/05 00:01:56;;;;;;;6.60;4.77;;;;;;;16.09;100.00;155494.06;5051581;28;20453;-79
2023/08/05 00:04:23;;;;;;;7.17;5.47;;;;;;;16.11;100.00;155499.25;5044284;28;20454;-80
2023/08/05 00:06:49;;;;;;;6.10;5.23;;;;;;;16.12;100.00;155503.16;5057194;28;20684;-80
2023/08/05 00:09:17;;;;;;;6.13;4.87;;;;;;;16.09;100.00;155494.06;5051653;28;20473;-79
2023/08/05 00:11:44;;;;;;;6.20;5.10;;;;;;;16.08;100.00;155492.75;5067487;28;20458;-79
2023/08/05 00:14:12;;;;;;;6.20;5.00;;;;;;;16.04;100.00;155482.38;5044004;28;20478;-79
2023/08/05 00:16:39;;;;;;;6.80;5.83;;;;;;;16.00;100.00;155470.63;5056665;28;20861;-79
2023/08/05 00:19:06;;;;;;;6.10;5.30;;;;;;;15.99;100.00;155468.06;5046769;28;20976;-79
2023/08/05 00:21:32;;;;;;;8.57;4.67;;;;;;;15.96;100.00;155461.56;5048796;28;20443;-79
2023/08/05 00:23:59;;;;;;;6.47;5.00;;;;;;;15.98;100.00;155466.75;5038220;28;20454;-79
2023/08/05 00:26:27;;;;;;;6.90;5.20;;;;;;;15.99;100.00;155468.06;5034082;28;20439;-79
2023/08/05 00:28:53;;;;;;;6.50;5.80;;;;;;;16.03;100.00;155479.75;5025328;28;20455;-79
2023/08/05 00:31:20;;;;;;;6.30;5.47;;;;;;;16.02;100.00;155475.88;5040524;28;20451;-79
2023/08/05 00:33:46;;;;;;;5.23;4.60;;;;;;;15.99;100.00;155469.31;5042421;28;20536;-80
2023/08/05 00:36:13;;;;;;;6.33;5.20;;;;;;;15.97;100.00;155464.13;5048711;28;20443;-79
2023/08/05 00:38:40;;;;;;;6.43;5.40;;;;;;;16.01;100.00;155473.25;5045319;28;21008;-80
2023/08/05 00:41:06;;;;;;;5.73;5.03;;;;;;;15.98;100.00;155465.44;5030758;28;20458;-80
2023/08/05 00:43:34;;;;;;;8.10;5.47;;;;;;;15.95;100.00;155457.63;5055484;28;20482;-79
2023/08/05 00:46:01;;;;;;;6.63;4.83;;;;;;;15.93;100.00;155452.44;5055837;28;20461;-80
2023/08/05 00:48:28;;;;;;;5.87;5.20;;;;;;;15.94;100.00;155455.06;5016316;28;20456;-80
2023/08/05 00:50:56;;;;;;;6.33;4.70;;;;;;;15.92;100.00;155451.13;5052346;28;20461;-79
2023/08/05 00:53:23;;;;;;;6.20;5.60;;;;;;;15.95;100.00;155457.63;5017693;28;20533;-79
2023/08/05 00:55:50;;;;;;;5.53;4.70;;;;;;;15.95;100.00;155457.63;5046319;28;20467;-79
2023/08/05 00:58:17;;;;;;;7.73;4.53;;;;;;;15.93;100.00;155453.75;5029679;28;20451;-79
2023/08/05 01:00:45;;;;;;;6.27;5.30;;;;;;;15.89;100.00;155443.31;5040030;28;20512;-79
2023/08/05 01:03:12;;;;;;;5.33;4.70;;;;;;;15.89;100.00;155442.00;5048109;28;20458;-79
2023/08/05 01:05:38;;;;;;;6.43;4.90;;;;;;;15.87;100.00;155436.81;5043901;28;20481;-79
2023/08/05 01:08:05;;;;;;;7.10;5.47;;;;;;;15.84;100.00;155431.63;5050510;28;20465;-79
2023/08/05 01:10:32;;;;;;;8.00;4.50;;;;;;;15.81;100.00;155423.81;5052864;28;20470;-79
2023/08/05 01:12:59;;;;;;;5.10;4.50;;;;;;;15.80;100.00;155419.94;5032824;28;20531;-79
2023/08/05 01:15:26;;;;;;;10.10;5.70;;;;;;;15.78;100.00;155414.72;5065858;28;20565;-80
2023/08/05 01:17:56;;;;;;;6.23;4.33;;;;;;;15.79;100.00;155418.63;5060899;28;20972;-79
2023/08/05 01:20:27;;;;;;;6.17;5.03;;;;;;;15.79;100.00;155418.63;5046763;28;20852;-79
2023/08/05 01:22:55;;;;;;;7.20;5.60;;;;;;;15.80;100.00;155421.25;5029046;28;20453;-79
2023/08/05 01:25:28;;;;;;;7.67;5.20;;;;;;;15.76;100.00;155410.84;5046094;28;20462;-79
2023/08/05 01:27:55;;;;;;;5.03;4.43;;;;;;;15.75;100.00;155408.22;5045784;28;20565;-79
2023/08/05 01:30:23;;;;;;;5.30;4.53;;;;;;;15.76;100.00;155409.53;5047872;28;20782;-79
2023/08/05 01:32:51;;;;;;;5.93;5.30;;;;;;;15.76;100.00;155410.84;5011979;28;20581;-79
2023/08/05 01:35:18;;;;;;;5.57;4.93;;;;;;;15.74;100.00;155404.34;5026921;28;20839;-79
2023/08/05 01:37:46;;;;;;;5.93;4.80;;;;;;;15.73;100.00;155403.03;5026912;28;20593;-79
2023/08/05 01:40:13;;;;;;;5.90;4.77;;;;;;;15.73;100.00;155403.03;5046846;28;20442;-79
2023/08/05 01:42:41;;;;;;;5.63;4.70;;;;;;;15.71;100.00;155396.53;5045112;28;20506;-79
2023/08/05 01:45:08;;;;;;;5.40;4.53;;;;;;;15.72;100.00;155400.47;5039048;28;20454;-79
2023/08/05 01:47:34;;;;;;;5.27;4.60;;;;;;;15.72;100.00;155400.47;5026394;28;20467;-79
2023/08/05 01:50:01;;;;;;;5.80;4.67;;;;;;;15.69;100.00;155391.34;5051889;28;20481;-80
2023/08/05 01:52:28;;;;;;;5.50;4.33;;;;;;;15.68;100.00;155388.72;5044638;28;20853;-79
2023/08/05 01:54:55;;;;;;;6.30;4.97;;;;;;;15.62;100.00;155374.41;5031815;28;20541;-79
2023/08/05 01:57:21;;;;;;;5.20;4.40;;;;;;;15.63;100.00;155375.72;5029929;28;20847;-79
2023/08/05 01:59:49;;;;;;;6.10;4.90;;;;;;;15.64;100.00;155378.34;5011790;28;20455;-79
2023/08/05 02:02:16;;;;;;;5.90;5.00;;;;;;;15.63;100.00;155377.03;5027207;28;20458;-80
2023/08/05 02:04:42;;;;;;;5.67;4.63;;;;;;;15.65;100.00;155380.91;5004282;28;20455;-80
2023/08/05 02:07:09;;;;;;;8.00;4.30;;;;;;;15.65;100.00;155382.22;5042662;28;20657;-79
2023/08/05 02:09:36;;;;;;;6.13;4.90;;;;;;;15.64;100.00;155379.66;5024708;28;20478;-79
2023/08/05 02:12:02;;;;;;;5.83;5.23;;;;;;;15.63;100.00;155377.03;5027045;28;20487;-79
2023/08/05 02:14:29;;;;;;;6.73;4.67;;;;;;;15.63;100.00;155377.03;5031379;28;20471;-80
2023/08/05 02:16:57;;;;;;;7.00;4.87;;;;;;;15.63;100.00;155377.03;5046290;28;20980;-79
2023/08/05 02:19:23;;;;;;;6.53;4.80;;;;;;;15.58;100.00;155364.03;5022642;28;20884;-80
2023/08/05 02:21:50;;;;;;;8.50;5.10;;;;;;;15.56;100.00;155358.84;5033535;28;20470;-80
2023/08/05 02:24:16;;;;;;;5.53;4.60;;;;;;;15.53;100.00;155351.06;5039984;28;20467;-79
2023/08/05 02:26:43;;;;;;;5.90;4.73;;;;;;;15.51;100.00;155344.56;5040063;28;20806;-80
2023/08/05 02:29:10;;;;;;;6.60;5.37;;;;;;;15.49;100.00;155340.63;5062161;28;20503;-79
2023/08/05 02:31:37;;;;;;;6.50;4.60;;;;;;;15.51;100.00;155345.88;5033261;28;20755;-80
2023/08/05 02:34:06;;;;;;;6.13;4.87;;;;;;;15.50;100.00;155343.25;5050440;28;20441;-79
2023/08/05 02:36:32;;;;;;;6.73;5.23;;;;;;;15.48;100.00;155336.75;5053316;28;20454;-79
2023/08/05 02:38:59;;;;;;;6.03;5.43;;;;;;;15.43;100.00;155323.72;5034440;28;20446;-79
2023/08/05 02:41:26;;;;;;;5.07;4.57;;;;;;;15.39;100.00;155314.59;5043605;28;20446;-79
2023/08/05 02:43:52;;;;;;;5.47;4.83;;;;;;;15.34;100.00;155301.59;5033169;28;20451;-79
2023/08/05 02:46:19;;;;;;;6.57;5.87;;;;;;;15.33;100.00;155298.97;5040091;28;20545;-79
2023/08/05 02:48:45;;;;;;;5.97;5.37;;;;;;;15.26;100.00;155280.81;5062992;28;20813;-79
2023/08/05 02:51:13;;;;;;;5.77;5.17;;;;;;;15.23;100.00;155274.31;5032043;28;20443;-79
2023/08/05 02:53:40;;;;;;;6.10;5.13;;;;;;;15.18;100.00;155260.00;5035693;28;20456;-80
2023/08/05 02:56:06;;;;;;;7.93;5.60;;;;;;;15.17;100.00;155257.41;5031030;28;20812;-79
2023/08/05 02:58:33;;;;;;;7.03;5.10;;;;;;;15.15;100.00;155252.22;5019384;28;20468;-79
2023/08/05 03:01:05;;;;;;;6.37;5.53;;;;;;;15.16;100.00;155254.81;5052373;28;20455;-79
2023/08/05 03:03:32;;;;;;;7.97;5.50;;;;;;;15.20;100.00;155265.19;5045582;28;20858;-79
2023/08/05 03:05:59;;;;;;;10.50;6.60;;;;;;;15.16;100.00;155254.81;5054438;28;20481;-79
2023/08/05 03:08:27;;;;;;;8.23;6.10;;;;;;;15.15;100.00;155252.22;5003354;28;20463;-79
2023/08/05 03:10:58;;;;;;;6.63;5.60;;;;;;;15.13;100.00;155247.03;5044017;28;20869;-79
2023/08/05 03:13:24;;;;;;;6.10;5.50;;;;;;;15.12;100.00;155244.41;5028457;28;20464;-80
2023/08/05 03:15:51;;;;;;;9.20;5.50;;;;;;;15.12;100.00;155244.41;5038706;28;20471;-79
2023/08/05 03:18:18;;;;;;;6.90;6.20;;;;;;;15.08;100.00;155234.03;5030045;28;20456;-80
2023/08/05 03:20:45;;;;;;;7.70;5.83;;;;;;;15.10;100.00;155239.22;5031062;28;20461;-79
2023/08/05 03:23:15;;;;;;;6.30;5.40;;;;;;;15.08;100.00;155235.34;5013576;28;20558;-79
2023/08/05 03:25:47;;;;;;;8.90;6.97;;;;;;;15.09;100.00;155237.91;5012529;28;20831;-79
2023/08/05 03:28:14;;;;;;;7.47;6.17;;;;;;;15.08;100.00;155235.34;5039841;28;20794;-79
2023/08/05 03:30:47;;;;;;;9.87;7.47;;;;;;;15.11;100.00;155241.84;5014898;28;20610;-79
2023/08/05 03:33:19;;;;;;;6.90;5.93;;;;;;;15.10;100.00;155239.22;5042124;28;20863;-79
2023/08/05 03:35:46;;;;;;;7.30;6.47;;;;;;;15.12;100.00;155244.41;5051388;28;20835;-78
2023/08/05 03:38:16;;;;;;;9.87;6.70;;;;;;;15.08;100.00;155234.03;5006198;28;20464;-79
2023/08/05 03:40:43;;;;;;;8.23;6.33;;;;;;;15.07;100.00;155231.41;5012313;28;20972;-78
2023/08/05 03:43:11;;;;;;;8.90;6.33;;;;;;;15.09;100.00;155236.66;5039947;28;20523;-79
2023/08/05 03:45:38;;;;;;;8.13;6.80;;;;;;;15.07;100.00;155231.41;5031758;28;20521;-79
2023/08/05 03:48:05;;;;;;;7.67;6.50;;;;;;;15.04;100.00;155223.63;5029096;28;20459;-78
2023/08/05 03:50:32;;;;;;;9.37;7.10;;;;;;;15.04;100.00;155223.63;5037012;28;20558;-79
2023/08/05 03:52:58;;;;;;;7.70;6.60;;;;;;;15.01;100.00;155215.88;5040713;28;20458;-79
2023/08/05 03:55:25;;;;;;;7.30;6.17;;;;;;;15.04;100.00;155223.63;5039865;28;20510;-78
2023/08/05 03:57:52;;;;;;;7.03;6.33;;;;;;;15.05;100.00;155226.22;5028601;28;20452;-78
2023/08/05 04:00:20;;;;;;;8.17;6.20;;;;;;;15.07;100.00;155232.72;5033654;28;20463;-79
2023/08/05 04:02:47;;;;;;;9.10;6.70;;;;;;;15.08;100.00;155234.03;5052190;28;21016;-79
2023/08/05 04:05:13;;;;;;;8.70;6.90;;;;;;;15.09;100.00;155236.66;5043100;28;20478;-79
2023/08/05 04:07:40;;;;;;;6.70;6.07;;;;;;;15.09;100.00;155236.66;5016526;28;20459;-79
2023/08/05 04:10:08;;;;;;;6.70;5.97;;;;;;;15.10;100.00;155240.53;5037872;28;20451;-79
2023/08/05 04:12:35;;;;;;;7.80;6.03;;;;;;;15.07;100.00;155231.41;5048582;28;20908;-79
2023/08/05 04:15:03;;;;;;;9.83;6.40;;;;;;;15.07;100.00;155231.41;5028339;28;20480;-79
2023/08/05 04:17:32;;;;;;;6.77;6.00;;;;;;;15.06;100.00;155230.09;5032212;28;21032;-78
2023/08/05 04:20:00;;;;;;;7.40;6.47;;;;;;;15.05;100.00;155226.22;5016928;28;20451;-79
2023/08/05 04:22:27;;;;;;;7.60;5.87;;;;;;;15.06;100.00;155228.84;5016914;28;20463;-79
2023/08/05 04:24:53;;;;;;;8.20;6.40;;;;;;;15.02;100.00;155218.44;5046673;28;20456;-79
2023/08/05 04:27:21;;;;;;;7.50;6.33;;;;;;;15.01;100.00;155215.88;5035236;28;20919;-79
2023/08/05 04:29:48;;;;;;;7.53;6.47;;;;;;;15.03;100.00;155221.03;5039500;28;20868;-78
2023/08/05 04:32:15;;;;;;;7.40;6.60;;;;;;;15.07;100.00;155232.72;5033630;28;20583;-79
2023/08/05 04:34:43;;;;;;;7.43;6.60;;;;;;;15.05;100.00;155226.22;5047915;28;20920;-79
2023/08/05 04:37:17;;;;;;;7.33;6.60;;;;;;;15.06;100.00;155230.09;5050509;28;20906;-79
2023/08/05 04:39:44;;;;;;;9.90;6.60;;;;;;;15.08;100.00;155234.03;5062744;28;20836;-79
2023/08/05 04:42:10;;;;;;;8.57;6.63;;;;;;;15.05;100.00;155227.53;5034476;28;20466;-79
2023/08/05 04:44:40;;;;;;;8.30;6.60;;;;;;;15.05;100.00;155226.22;5047255;28;20962;-79
2023/08/05 04:47:06;;;;;;;7.77;6.40;;;;;;;15.03;100.00;155221.03;5051076;28;20463;-79
2023/08/05 04:49:33;;;;;;;7.80;5.40;;;;;;;15.02;100.00;155218.44;5032223;28;20467;-79
2023/08/05 04:52:05;;;;;;;7.40;6.33;;;;;;;15.03;100.00;155221.03;5047302;28;20471;-79
2023/08/05 04:54:32;;;;;;;8.83;6.80;;;;;;;14.99;100.00;155211.94;5041196;28;20936;-79
2023/08/05 04:56:58;;;;;;;7.27;6.57;;;;;;;14.99;100.00;155210.63;5056607;28;20586;-79
2023/08/05 04:59:25;;;;;;;8.73;5.90;;;;;;;15.02;100.00;155218.44;5046252;28;20561;-79
2023/08/05 05:01:52;;;;;;;9.03;6.20;;;;;;;15.02;100.00;155219.75;5024094;28;20464;-79
2023/08/05 05:04:18;;;;;;;7.80;6.20;;;;;;;14.99;100.00;155211.94;5044035;28;20458;-79
2023/08/05 05:06:45;;;;;;;8.03;6.87;;;;;;;14.96;100.00;155202.81;5035833;28;20454;-79
2023/08/05 05:09:13;;;;;;;6.40;5.70;;;;;;;14.98;100.00;155209.38;5041784;28;20512;-79
2023/08/05 05:11:40;;;;;;;7.80;6.30;;;;;;;15.01;100.00;155215.88;5043543;28;20562;-79
2023/08/05 05:14:07;;;;;;;8.80;6.40;;;;;;;14.98;100.00;155208.06;5043422;28;20454;-79
2023/08/05 05:16:33;;;;;;;7.10;6.40;;;;;;;14.99;100.00;155210.63;5025178;28;20514;-79
2023/08/05 05:19:00;;;;;;;6.77;5.97;;;;;;;15.00;100.00;155214.56;5059133;28;20509;-79
2023/08/05 05:21:26;;;;;;;7.03;6.03;;;;;;;15.00;100.00;155213.25;5045634;28;20917;-79
2023/08/05 05:23:53;;;;;;;9.67;7.00;;;;;;;15.02;100.00;155218.44;5043766;28;20447;-79
2023/08/05 05:26:21;;;;;;;8.47;6.27;;;;;;;15.03;100.00;155222.34;5043992;28;20838;-79
2023/08/05 05:28:47;;;;;;;7.67;6.90;;;;;;;15.03;100.00;155221.03;5041728;28;20576;-79
2023/08/05 05:31:14;;;;;;;7.00;6.30;;;;;;;15.03;100.00;155221.03;5044388;28;20689;-78
2023/08/05 05:33:42;;;;;;;7.33;6.50;;;;;;;15.04;100.00;155223.63;5059186;28;20487;-79
2023/08/05 05:36:09;;;;;;;7.00;5.70;;;;;;;15.04;100.00;155223.63;5044191;28;20470;-79
2023/08/05 05:38:35;;;;;;;8.53;6.30;;;;;;;15.01;100.00;155215.88;5045040;28;20833;-79
2023/08/05 05:41:02;;;;;;;7.00;5.50;;;;;;;15.04;100.00;155223.63;5041213;28;20470;-79
2023/08/05 05:43:30;;;;;;;6.70;5.97;;;;;;;15.05;100.00;155227.53;5043369;28;20451;-79
2023/08/05 05:45:56;;;;;;;8.20;6.13;;;;;;;15.07;100.00;155231.41;5044810;28;20455;-79
2023/08/05 05:48:23;;;;;;;6.30;5.70;;;;;;;15.12;100.00;155244.41;5045032;28;20462;-79
2023/08/05 05:50:52;;;;;;;8.17;6.13;;;;;;;15.15;100.00;155252.22;5026403;28;20457;-79
2023/08/05 05:53:19;;;;;;;10.10;6.17;;;;;;;15.17;100.00;155258.72;5057490;28;20513;-79
2023/08/05 05:55:45;;;;;;;10.10;7.63;;;;;;;15.17;100.00;155257.41;5057052;28;20471;-79
2023/08/05 05:58:12;;;;;;;7.67;6.43;;;;;;;15.19;100.00;155263.94;5044567;28;20944;-79
2023/08/05 06:00:40;;;;;;;7.60;6.63;;;;;;;15.19;100.00;155263.94;5058016;28;20451;-80
2023/08/05 06:03:07;;;;;;;6.70;5.60;;;;;;;15.20;100.00;155265.19;5044620;28;20455;-81
2023/08/05 06:05:34;;;;;;;6.60;5.67;;;;;;;15.21;100.00;155267.81;5029961;28;20546;-81
2023/08/05 06:08:00;;;;;;;8.13;5.73;;;;;;;15.22;100.00;155270.44;5043330;28;20482;-81
2023/08/05 06:10:27;;;;;;;6.50;5.90;;;;;;;15.28;100.00;155286.00;5045967;28;20458;-80
2023/08/05 06:12:55;;;;;;;7.10;5.20;;;;;;;15.34;100.00;155300.28;5058249;28;20443;-80
2023/08/05 06:15:21;;;;;;;7.17;5.10;;;;;;;15.42;100.00;155321.09;5043509;28;20541;-81
2023/08/05 06:17:49;;;;;;;5.93;5.33;;;;;;;15.53;100.00;155349.75;5042515;28;20941;-80
2023/08/05 06:20:16;;;;;;;7.07;6.13;;;;;;;15.62;100.00;155373.16;5022638;28;20908;-80
2023/08/05 06:22:42;;;;;;;7.03;5.20;;;;;;;15.70;100.00;155395.22;5043466;28;20487;-81
2023/08/05 06:25:09;;;;;;;6.47;5.27;;;;;;;15.77;100.00;155412.13;5044467;28;20473;-80
2023/08/05 06:27:36;;;;;;;5.67;5.03;;;;;;;15.83;100.00;155427.75;5022854;28;20479;-80
2023/08/05 06:30:03;;;;;;;4.90;4.40;;;;;;;15.95;100.00;155458.94;5044542;28;20449;-80
2023/08/05 06:32:30;;;;;;;9.13;5.50;;;;;;;16.05;100.00;155483.63;5043300;28;20479;-81
2023/08/05 06:34:58;;;;;;;6.43;5.00;;;;;;;16.09;100.00;155494.06;5021920;28;20546;-81
2023/08/05 06:37:24;;;;;;;5.70;4.30;;;;;;;16.18;100.00;155518.75;5040152;28;20486;-81
2023/08/05 06:39:51;;;;;;;5.30;4.70;;;;;;;16.31;100.00;155551.25;5025900;28;20459;-81
2023/08/05 06:42:18;;;;;;;6.77;4.23;;;;;;;16.43;100.00;155582.47;5059210;28;20462;-81
2023/08/05 06:44:44;;;;;;;7.70;6.90;;;;;;;16.48;100.00;155595.47;5040997;28;21004;-81
2023/08/05 06:47:11;;;;;;;5.80;4.90;;;;;;;16.55;100.00;155613.72;4975888;28;20485;-82
2023/08/05 06:49:37;;;;;;;6.03;4.87;;;;;;;16.63;100.00;155634.53;5011575;28;20477;-81
2023/08/05 06:52:06;;;;;;;4.77;3.90;;;;;;;16.71;100.00;155654.03;4998117;28;20492;-81
2023/08/05 06:54:33;;;;;;;5.17;4.57;;;;;;;16.78;100.00;155672.28;5011181;28;20460;-81
2023/08/05 06:56:59;;;;;;;6.77;5.30;;;;;;;16.84;100.00;155689.19;5011785;28;20473;-81
2023/08/05 06:59:26;;;;;;;11.00;4.70;;;;;;;16.94;99.74;155715.19;4996510;28;20453;-81
2023/08/05 07:01:53;;;;;;;6.83;4.37;;;;;;;17.07;98.51;155746.44;4999371;28;20456;-80
2023/08/05 07:04:20;;;;;;;5.90;5.00;;;;;;;17.22;98.63;155785.47;5012191;28;20476;-81
2023/08/05 07:06:46;;;;;;;6.20;4.50;;;;;;;17.27;96.71;155798.47;4995916;28;20952;-82
2023/08/05 07:09:19;;;;;;;5.50;4.80;;;;;;;17.32;95.44;155811.50;5011761;28;20461;-81
2023/08/05 07:11:45;;;;;;;5.13;4.63;;;;;;;17.30;95.79;155807.63;5014664;28;20543;-81
2023/08/05 07:14:12;;;;;;;4.70;4.07;;;;;;;17.36;96.25;155821.94;5001183;28;20453;-81
2023/08/05 07:16:39;;;;;;;5.20;4.53;;;;;;;17.42;94.59;155838.81;5000396;28;20484;-82
2023/08/05 07:19:05;;;;;;;4.90;4.40;;;;;;;17.54;96.24;155870.16;4983784;28;20449;-81
2023/08/05 07:21:32;;;;;;;4.63;4.13;;;;;;;17.69;96.78;155907.88;5001764;28;20902;-81
2023/08/05 07:23:59;;;;;;;8.37;4.60;;;;;;;17.98;93.20;155983.38;5016233;28;20456;-81
2023/08/05 07:26:27;;;;;;;6.83;5.30;;;;;;;18.37;95.22;156082.38;5001776;28;20450;-81
2023/08/05 07:28:53;;;;;;;5.50;4.70;;;;;;;18.72;95.03;156173.59;5014523;28;20452;-81
2023/08/05 07:31:20;;;;;;;5.40;4.07;;;;;;;19.05;92.30;156258.28;5016027;28;20452;-82
2023/08/05 07:33:47;;;;;;;5.20;4.30;;;;;;;19.30;89.28;156324.75;4998606;28;21025;-82
2023/08/05 07:36:16;;;;;;;5.40;4.70;;;;;;;19.32;89.47;156330.00;5014575;28;21048;-82
2023/08/05 07:38:45;;;;;;;4.80;4.30;;;;;;;19.19;88.86;156294.81;5013004;28;20489;-82
2023/08/05 07:41:12;;;;;;;5.47;4.40;;;;;;;19.06;87.59;156262.19;5014209;28;20578;-82
2023/08/05 07:43:41;;;;;;;5.83;4.20;;;;;;;18.97;90.21;156238.75;5014327;28;20499;-81
2023/08/05 07:46:11;;;;;;;5.40;4.50;;;;;;;18.90;87.68;156219.22;4999222;28;20532;-82
2023/08/05 07:48:39;;;;;;;4.20;3.80;;;;;;;18.77;88.37;156186.66;4998701;28;21300;-82
2023/08/05 07:51:06;;;;;;;5.07;4.47;;;;;;;18.67;87.56;156161.88;5013514;28;20464;-81
2023/08/05 07:53:35;;;;;;;5.90;4.50;;;;;;;18.62;91.79;156147.53;5014871;28;20466;-81
2023/08/05 07:56:09;;;;;;;4.40;4.00;;;;;;;18.54;91.44;156126.69;4999724;28;20814;-81
2023/08/05 07:58:35;;;;;;;9.00;4.83;;;;;;;18.48;90.04;156111.09;5013256;28;20891;-81
2023/08/05 08:01:03;;;;;;;4.50;3.70;;;;;;;18.52;92.29;156122.81;5016957;28;20468;-81
2023/08/05 08:03:30;;;;;;;6.47;3.93;;;;;;;18.60;89.30;156142.34;5014524;28;20467;-81
2023/08/05 08:05:57;;;;;;;5.60;4.23;;;;;;;18.73;92.53;156176.22;5021436;28;20479;-81
2023/08/05 08:08:24;;;;;;;5.37;3.90;;;;;;;18.95;92.25;156233.56;4998702;28;20468;-81
2023/08/05 08:10:50;;;;;;;4.63;3.60;;;;;;;19.13;85.94;156280.47;5018243;28;20473;-82
2023/08/05 08:13:17;;;;;;;4.90;4.20;;;;;;;19.21;85.99;156301.31;5012028;28;20560;-82
2023/08/05 08:15:44;;;;;;;4.33;3.93;;;;;;;19.16;85.69;156288.28;4998831;28;20456;-82
2023/08/05 08:18:12;;;;;;;4.13;3.60;;;;;;;19.22;87.05;156303.88;5012028;28;21014;-82
2023/08/05 08:20:38;;;;;;;4.33;3.47;;;;;;;19.34;88.20;156335.19;5013349;28;20460;-81
2023/08/05 08:23:05;;;;;;;4.83;4.00;;;;;;;19.67;90.03;156418.69;4996254;28;20470;-82
2023/08/05 08:25:31;;;;;;;4.17;3.77;;;;;;;19.82;86.52;156459.09;5016226;28;20460;-82
2023/08/05 08:28:17;;;;;;;3.73;3.43;;;;;;;19.97;85.52;156496.88;4998801;28;20466;-79
2023/08/05 08:31:08;;;;;;;5.23;4.70;;;;;;;20.06;85.16;156520.38;4995311;28;20807;-79
2023/08/05 08:33:46;;;;;;;6.53;4.43;;;;;;;19.97;81.88;156496.88;5008526;28;20473;-78
2023/08/05 08:36:12;;;;;;;5.70;3.83;;;;;;;19.87;80.98;156472.13;5012636;28;20469;-78
2023/08/05 08:38:39;;;;;;;4.60;3.67;;;;;;;20.06;82.43;156520.38;4979508;28;20472;-78
2023/08/05 08:41:09;;;;;;;3.53;3.23;;;;;;;20.30;83.76;156581.72;5011697;28;21039;-77
2023/08/05 08:43:35;;;;;;;4.30;3.90;;;;;;;20.59;80.11;156658.69;5009951;28;20450;-78
2023/08/05 08:46:03;;;;;;;4.67;3.90;;;;;;;20.69;79.06;156683.47;5010677;28;20465;-78
2023/08/05 08:48:30;;;;;;;4.37;3.87;;;;;;;20.85;83.16;156723.91;4998603;28;20480;-78
2023/08/05 08:50:58;;;;;;;4.07;3.43;;;;;;;21.01;80.95;156765.66;5010896;28;20505;-78
2023/08/05 08:53:25;;;;;;;4.30;3.43;;;;;;;21.30;82.19;156840.09;5007881;28;20489;-78
2023/08/05 08:55:52;;;;;;;5.47;4.10;;;;;;;21.48;75.97;156888.38;5009695;28;20477;-79
2023/08/05 08:58:19;;;;;;;4.20;3.80;;;;;;;21.60;72.11;156919.75;4977039;28;20482;-78
2023/08/05 09:00:46;;;;;;;4.07;3.60;;;;;;;21.42;74.56;156871.44;5011486;28;20454;-78
2023/08/05 09:03:14;;;;;;;4.10;3.60;;;;;;;21.19;73.39;156814.00;4978893;28;20461;-78
2023/08/05 09:05:49;;;;;;;5.40;4.00;;;;;;;20.92;74.74;156742.16;5007675;28;20470;-80
2023/08/05 09:08:17;;;;;;;4.13;3.73;;;;;;;20.72;75.38;156689.97;4978503;28;20454;-79
2023/08/05 09:10:44;;;;;;;3.93;3.43;;;;;;;20.72;75.13;156689.97;5009670;28;20470;-79
2023/08/05 09:13:16;;;;;;;3.60;3.30;;;;;;;20.70;75.13;156686.09;5009719;28;20450;-79
2023/08/05 09:15:42;;;;;;;3.40;3.00;;;;;;;20.70;73.51;156684.78;5020478;28;20471;-79
2023/08/05 09:18:09;;;;;;;4.37;3.73;;;;;;;20.76;74.60;156700.44;4979112;28;20490;-79
2023/08/05 09:20:36;;;;;;;4.00;3.60;;;;;;;20.81;71.11;156714.75;4976830;28;21284;-79
2023/08/05 09:23:04;;;;;;;3.30;3.00;;;;;;;20.77;71.78;156704.34;5011424;28;20461;-78
2023/08/05 09:25:33;;;;;;;4.00;3.60;;;;;;;20.62;72.74;156666.47;5014704;28;20979;-79
2023/08/05 09:28:01;;;;;;;3.83;3.20;;;;;;;20.80;72.14;156710.84;4978225;28;20438;-79
2023/08/05 09:30:27;;;;;;;4.00;3.60;;;;;;;20.90;70.33;156736.94;4980652;28;20468;-79
2023/08/05 09:32:54;;;;;;;4.10;3.20;;;;;;;20.63;70.03;156669.09;5008856;28;20514;-79
2023/08/05 09:35:21;;;;;;;3.67;3.07;;;;;;;20.67;73.78;156678.25;5011623;28;22030;-79
2023/08/05 09:37:48;;;;;;;4.10;3.37;;;;;;;20.76;73.53;156701.72;4979114;28;20486;-80
2023/08/05 09:40:17;;;;;;;3.50;3.20;;;;;;;20.92;70.49;156743.47;5012547;28;20801;-80
2023/08/05 09:42:47;;;;;;;4.43;3.63;;;;;;;20.81;65.56;156713.47;5009391;28;20553;-80
2023/08/05 09:45:15;;;;;;;3.67;3.37;;;;;;;20.60;65.27;156661.28;5006920;28;20457;-81
2023/08/05 09:47:43;;;;;;;3.60;3.30;;;;;;;20.51;67.87;156636.50;4991133;28;20540;-82
2023/08/05 09:50:13;;;;;;;3.83;3.33;;;;;;;20.63;69.42;156667.78;5009264;28;20458;-81
2023/08/05 09:52:40;;;;;;;3.60;3.30;;;;;;;20.75;69.38;156697.81;5009354;28;20476;-81
2023/08/05 09:55:11;;;;;;;3.27;2.80;;;;;;;20.80;68.10;156712.16;5025318;28;20496;-82
2023/08/05 09:57:38;;;;;;;3.37;3.07;;;;;;;21.12;66.94;156794.44;5008880;28;20813;-82
2023/08/05 10:00:08;;;;;;;3.83;3.13;;;;;;;21.63;64.55;156927.53;5008473;28;20473;-82
2023/08/05 10:02:35;;;;;;;4.07;2.80;;;;;;;21.66;65.23;156934.06;5010338;28;20505;-82
2023/08/05 10:05:02;;;;;;;3.90;3.13;;;;;;;21.51;64.19;156896.22;4977857;28;21083;-82
2023/08/05 10:07:29;;;;;;;3.17;2.87;;;;;;;21.14;66.61;156800.94;5011920;28;20505;-82
2023/08/05 10:09:56;;;;;;;3.47;2.77;;;;;;;21.06;67.38;156780.06;4976505;28;20460;-82
2023/08/05 10:12:27;;;;;;;3.43;2.83;;;;;;;21.03;69.42;156770.88;4979306;28;20457;-82
2023/08/05 10:14:55;;;;;;;3.23;2.77;;;;;;;20.99;64.37;156761.75;5008277;28;21033;-82
2023/08/05 10:17:24;;;;;;;3.40;3.10;;;;;;;21.08;71.52;156783.97;5008478;28;20473;-85
2023/08/05 10:19:51;;;;;;;3.17;2.80;;;;;;;21.08;70.30;156783.97;5008375;28;20884;-85
2023/08/05 10:22:22;;;;;;;4.60;3.20;;;;;;;21.19;74.35;156812.69;5008558;28;20462;-85
2023/08/05 10:24:56;;;;;;;2.93;2.50;;;;;;;21.11;72.57;156793.13;5008512;28;20481;-84
2023/08/05 10:27:40;;;;;;;3.13;2.80;;;;;;;21.11;80.25;156793.13;5009241;28;20493;-84
2023/08/05 10:30:12;;;;;;;3.30;3.00;;;;;;;20.98;70.99;156757.81;5009069;28;20466;-84
2023/08/05 10:32:53;;;;;;;3.00;2.70;;;;;;;20.89;72.51;156735.63;5006533;28;20494;-84
2023/08/05 10:35:30;;;;;;;2.70;2.40;;;;;;;20.82;67.99;156717.38;5011513;28;20852;-84
2023/08/05 10:38:11;;;;;;;3.53;2.43;;;;;;;20.67;73.22;156676.94;5008393;28;20537;-84
2023/08/05 10:40:42;;;;;;;3.20;2.90;;;;;;;20.56;71.48;156650.84;4977665;28;20456;-84
2023/08/05 10:43:10;;;;;;;3.13;2.83;;;;;;;20.62;80.76;156665.22;4976797;28;20956;-83
2023/08/05 10:45:40;;;;;;;3.40;2.90;;;;;;;20.56;80.92;156649.53;5012587;28;20466;-83
2023/08/05 10:48:10;;;;;;;3.40;2.90;;;;;;;20.52;70.76;156639.06;4983928;28;20892;-84
2023/08/05 10:50:37;;;;;;;4.43;3.00;;;;;;;20.44;73.18;156619.53;4980786;28;20556;-83
2023/08/05 10:53:07;;;;;;;3.13;2.70;;;;;;;20.29;70.43;156580.41;5012788;28;20455;-83
2023/08/05 10:55:46;;;;;;;3.83;3.30;;;;;;;20.14;70.25;156541.25;5015411;28;20532;-83
2023/08/05 10:58:13;;;;;;;2.87;2.57;;;;;;;20.05;70.83;156517.75;4981034;28;20827;-83
2023/08/05 11:00:41;;;;;;;5.63;3.33;;;;;;;20.01;70.61;156508.59;5011410;28;20454;-83
2023/08/05 11:03:32;;;;;;;5.43;4.07;;;;;;;20.00;75.86;156504.72;5012707;28;20973;-83
2023/08/05 11:06:04;;;;;;;3.33;2.93;;;;;;;19.90;71.38;156478.66;5017556;28;20445;-83
2023/08/05 11:08:31;;;;;;;4.00;3.03;;;;;;;19.97;71.84;156498.19;5011304;28;20949;-83
2023/08/05 11:11:01;;;;;;;2.70;2.50;;;;;;;19.99;72.27;156502.09;5018164;28;20919;-83
2023/08/05 11:13:27;;;;;;;3.93;2.90;;;;;;;20.08;75.85;156525.59;5012023;28;20446;-84
2023/08/05 11:16:04;;;;;;;3.10;2.80;;;;;;;20.19;67.86;156554.28;5020699;28;20464;-83
2023/08/05 11:18:32;;;;;;;3.03;2.60;;;;;;;20.07;67.74;156522.94;5014519;28;20461;-84
2023/08/05 11:21:01;;;;;;;2.60;2.40;;;;;;;20.08;67.24;156525.59;5020117;28;20485;-83
2023/08/05 11:23:28;;;;;;;3.27;2.60;;;;;;;20.13;68.46;156537.31;4982830;28;20540;-83